createdAt,value
2023-04-15T00:01:10.085Z,8.38
2023-04-15T00:03:37.038Z,8.53
2023-04-15T00:06:04.238Z,9.48
2023-04-15T00:08:32.654Z,11.63
2023-04-15T00:11:05.867Z,8.18
2023-04-15T00:13:36.017Z,7.57
2023-04-15T00:16:03.135Z,8.17
2023-04-15T00:18:45.863Z,8.82
2023-04-15T00:21:26.498Z,7.22
2023-04-15T00:23:53.937Z,7.60
2023-04-15T00:26:23.532Z,7.80
2023-04-15T00:28:53.133Z,7.33
2023-04-15T00:31:24.986Z,8.25
2023-04-15T00:34:17.339Z,11.13
2023-04-15T00:37:13.627Z,7.22
2023-04-15T00:39:40.936Z,7.40
2023-04-15T00:42:13.414Z,8.10
2023-04-15T00:44:43.304Z,10.18
2023-04-15T00:47:12.414Z,7.65
2023-04-15T00:49:39.104Z,6.65
2023-04-15T00:52:06.242Z,5.80
2023-04-15T00:54:33.047Z,4.60
2023-04-15T00:57:07.285Z,5.47
2023-04-15T00:59:59.774Z,6.22
2023-04-15T01:02:27.606Z,7.78
2023-04-15T01:04:58.925Z,6.50
2023-04-15T01:07:29.018Z,8.17
2023-04-15T01:10:03.982Z,6.53
2023-04-15T01:12:41.014Z,8.52
2023-04-15T01:15:22.181Z,6.53
2023-04-15T01:17:49.240Z,5.43
2023-04-15T01:20:25.337Z,9.13
2023-04-15T01:22:52.995Z,7.30
2023-04-15T01:25:35.166Z,6.70
2023-04-15T01:28:22.330Z,8.30
2023-04-15T01:30:51.362Z,7.90
2023-04-15T01:33:18.149Z,8.03
2023-04-15T01:35:45.220Z,7.03
2023-04-15T01:38:14.455Z,7.13
2023-04-15T01:40:41.049Z,7.63
2023-04-15T01:43:07.776Z,7.60
2023-04-15T01:45:34.524Z,6.83
2023-04-15T01:48:01.728Z,7.60
2023-04-15T01:50:37.071Z,7.03
2023-04-15T01:53:06.201Z,6.32
2023-04-15T01:55:35.823Z,6.57
2023-04-15T01:58:02.758Z,7.03
2023-04-15T02:00:30.169Z,6.07
2023-04-15T02:02:57.145Z,6.38
2023-04-15T02:05:25.697Z,6.32
2023-04-15T02:07:52.721Z,6.60
2023-04-15T02:10:27.392Z,6.50
2023-04-15T02:12:56.791Z,7.07
2023-04-15T02:15:23.440Z,6.60
2023-04-15T02:17:52.900Z,7.25
2023-04-15T02:20:21.535Z,4.22
2023-04-15T02:22:48.640Z,7.53
2023-04-15T02:25:17.084Z,7.20
2023-04-15T02:27:46.486Z,7.03
2023-04-15T02:30:13.627Z,7.43
2023-04-15T02:32:41.069Z,5.20
2023-04-15T02:35:09.052Z,6.37
2023-04-15T02:37:40.811Z,6.57
2023-04-15T02:40:11.978Z,6.95
2023-04-15T02:42:44.128Z,6.22
2023-04-15T02:45:12.930Z,7.35
2023-04-15T02:47:43.335Z,5.17
2023-04-15T02:50:13.488Z,5.63
2023-04-15T02:52:42.094Z,6.60
2023-04-15T02:55:09.718Z,6.43
2023-04-15T02:57:40.844Z,6.00
2023-04-15T03:00:10.213Z,4.90
2023-04-15T03:02:40.202Z,4.95
2023-04-15T03:05:07.818Z,5.60
2023-04-15T03:07:35.702Z,5.63
2023-04-15T03:10:02.705Z,3.75
2023-04-15T03:12:30.502Z,4.87
2023-04-15T03:14:57.205Z,4.78
2023-04-15T03:17:23.944Z,4.85
2023-04-15T03:19:53.635Z,5.47
2023-04-15T03:22:20.581Z,5.30
2023-04-15T03:24:55.053Z,5.50
2023-04-15T03:27:21.697Z,6.50
2023-04-15T03:29:51.747Z,6.72
2023-04-15T03:32:22.859Z,5.05
2023-04-15T03:34:55.396Z,7.28
2023-04-15T03:37:22.424Z,8.80
2023-04-15T03:39:53.309Z,8.52
2023-04-15T03:42:20.456Z,7.82
2023-04-15T03:44:51.304Z,8.13
2023-04-15T03:47:18.242Z,8.98
2023-04-15T03:49:47.836Z,9.37
2023-04-15T03:52:17.030Z,11.02
2023-04-15T03:54:56.233Z,9.77
2023-04-15T03:57:24.367Z,10.32
2023-04-15T04:00:02.569Z,10.57
2023-04-15T04:02:36.936Z,11.37
2023-04-15T04:05:12.695Z,10.63
2023-04-15T04:07:57.251Z,11.30
2023-04-15T04:10:27.164Z,11.40
2023-04-15T04:12:59.876Z,12.10
2023-04-15T04:15:28.999Z,10.13
2023-04-15T04:17:58.331Z,10.32
2023-04-15T04:20:26.158Z,10.45
2023-04-15T04:23:02.861Z,11.95
2023-04-15T04:25:29.817Z,11.77
2023-04-15T04:28:02.308Z,11.97
2023-04-15T04:30:31.805Z,14.15
2023-04-15T04:33:02.573Z,13.98
2023-04-15T04:35:30.716Z,12.18
2023-04-15T04:38:01.103Z,14.38
2023-04-15T04:40:33.863Z,13.63
2023-04-15T04:43:01.222Z,11.13
2023-04-15T04:45:30.603Z,11.32
2023-04-15T04:47:57.745Z,12.43
2023-04-15T04:50:24.471Z,11.18
2023-04-15T04:55:56.753Z,8.90
2023-04-15T04:58:37.707Z,10.75
2023-04-15T05:01:04.727Z,9.65
2023-04-15T05:03:33.952Z,9.95
2023-04-15T05:06:06.174Z,9.67
2023-04-15T05:08:35.041Z,9.02
2023-04-15T05:11:08.267Z,8.98
2023-04-15T05:13:43.557Z,10.32
2023-04-15T05:16:10.378Z,10.40
2023-04-15T05:18:42.263Z,8.87
2023-04-15T05:21:09.099Z,11.10
2023-04-15T05:23:38.038Z,9.55
2023-04-15T05:26:04.888Z,8.05
2023-04-15T05:28:31.512Z,7.85
2023-04-15T05:30:58.381Z,9.47
2023-04-15T05:33:27.692Z,10.57
2023-04-15T05:35:54.242Z,8.80
2023-04-15T05:41:09.681Z,8.52
2023-04-15T05:43:40.441Z,8.77
2023-04-15T05:46:18.141Z,8.90
2023-04-15T05:48:46.118Z,8.95
2023-04-15T05:51:27.102Z,10.10
2023-04-15T05:53:53.784Z,9.70
2023-04-15T05:56:23.135Z,6.53
2023-04-15T05:59:07.515Z,10.82
2023-04-15T06:01:34.465Z,10.93
2023-04-15T06:04:09.862Z,9.40
2023-04-15T06:06:41.332Z,10.55
2023-04-15T06:09:08.006Z,11.10
2023-04-15T06:11:37.318Z,10.45
2023-04-15T06:14:11.511Z,12.00
2023-04-15T06:16:51.938Z,12.07
2023-04-15T06:19:26.303Z,11.95
2023-04-15T06:22:30.817Z,11.73
2023-04-15T06:27:47.406Z,12.15
2023-04-15T06:30:25.360Z,12.82
2023-04-15T06:32:52.907Z,14.20
2023-04-15T06:35:20.044Z,11.87
2023-04-15T06:37:52.019Z,14.13
2023-04-15T06:40:18.688Z,11.25
2023-04-15T06:42:45.777Z,11.10
2023-04-15T06:45:15.317Z,11.75
2023-04-15T06:47:44.415Z,8.87
2023-04-15T06:50:13.545Z,11.40
2023-04-15T06:52:50.847Z,10.23
2023-04-15T06:55:32.183Z,9.38
2023-04-15T06:58:25.491Z,9.93
2023-04-15T07:00:55.849Z,8.10
2023-04-15T07:03:22.617Z,11.30
2023-04-15T07:05:53.466Z,7.72
2023-04-15T07:08:50.381Z,7.85
2023-04-15T07:11:52.512Z,7.68
2023-04-15T07:14:26.629Z,7.50
2023-04-15T07:17:12.689Z,6.50
2023-04-15T07:19:50.430Z,7.22
2023-04-15T07:22:20.393Z,7.15
2023-04-15T07:24:58.181Z,6.18
2023-04-15T07:27:25.154Z,6.70
2023-04-15T07:29:52.834Z,6.82
2023-04-15T07:32:21.461Z,7.25
2023-04-15T07:35:42.421Z,6.95
2023-04-15T07:38:07.247Z,6.35
2023-04-15T07:40:34.373Z,5.67
2023-04-15T07:43:42.045Z,6.60
2023-04-15T07:46:24.819Z,6.90
2023-04-15T07:48:52.635Z,7.03
2023-04-15T07:51:25.695Z,8.57
2023-04-15T07:53:53.013Z,8.43
2023-04-15T07:56:22.373Z,7.32
2023-04-15T07:59:19.010Z,8.48
2023-04-15T08:02:07.210Z,8.05
2023-04-15T08:04:35.882Z,7.30
2023-04-15T08:07:29.178Z,9.07
2023-04-15T08:09:58.762Z,7.47
2023-04-15T08:12:38.700Z,6.60
2023-04-15T08:15:21.091Z,6.82
2023-04-15T08:18:05.263Z,7.47
2023-04-15T08:20:36.443Z,7.30
2023-04-15T08:23:04.693Z,6.18
2023-04-15T08:25:45.463Z,7.10
2023-04-15T08:28:12.236Z,7.65
2023-04-15T08:30:41.156Z,6.25
2023-04-15T08:33:12.633Z,9.53
2023-04-15T08:35:44.802Z,7.05
2023-04-15T08:38:38.635Z,5.90
2023-04-15T08:42:10.392Z,6.88
2023-04-15T08:44:48.888Z,7.25
2023-04-15T08:50:53.576Z,7.75
2023-04-15T09:04:23.975Z,8.10
2023-04-15T10:32:18.628Z,6.38
2023-04-15T11:06:47.741Z,6.25
2023-04-15T11:26:49.644Z,8.85
2023-04-15T11:30:39.444Z,6.10
2023-04-15T11:33:56.617Z,6.68
2023-04-15T11:37:30.675Z,8.75
2023-04-15T11:44:22.028Z,9.63
2023-04-15T11:47:02.702Z,9.95
2023-04-15T11:53:23.136Z,7.80
2023-04-15T12:00:05.699Z,7.28
2023-04-15T12:50:16.706Z,10.30
2023-04-15T14:34:56.076Z,8.50
2023-04-15T14:43:04.274Z,7.07
2023-04-15T15:03:23.634Z,7.10
2023-04-15T15:23:37.490Z,7.77
2023-04-15T15:26:42.335Z,7.80
2023-04-15T15:29:27.942Z,7.03
2023-04-15T15:32:08.194Z,7.05
2023-04-15T15:35:03.975Z,6.13
2023-04-15T15:38:12.018Z,6.57
2023-04-15T15:44:44.550Z,7.05
2023-04-15T15:47:57.780Z,6.63
2023-04-15T15:50:43.855Z,7.88
2023-04-15T15:53:28.225Z,7.90
2023-04-15T15:56:21.217Z,7.75
2023-04-15T15:58:59.680Z,6.55
2023-04-15T16:05:27.299Z,7.28
2023-04-15T16:08:05.558Z,9.07
2023-04-15T16:36:41.839Z,7.25
2023-04-15T16:39:12.247Z,8.60
2023-04-15T16:41:41.701Z,6.38
2023-04-15T16:44:13.550Z,8.50
2023-04-15T16:46:57.302Z,7.72
2023-04-15T16:49:50.590Z,6.38
2023-04-15T16:52:39.269Z,7.33
2023-04-15T16:58:18.602Z,8.15
2023-04-15T17:00:50.310Z,9.05
2023-04-15T17:03:20.169Z,7.60
2023-04-15T17:05:51.925Z,6.97
2023-04-15T17:08:40.469Z,8.32
2023-04-15T17:11:07.396Z,7.63
2023-04-15T17:13:58.584Z,6.38
2023-04-15T17:16:28.124Z,6.78
2023-04-15T17:18:57.679Z,6.80
2023-04-15T17:21:25.988Z,8.05
2023-04-15T17:23:58.896Z,7.32
2023-04-15T17:26:25.603Z,9.13
2023-04-15T17:28:54.862Z,7.60
2023-04-15T17:31:32.884Z,6.60
2023-04-15T17:34:13.956Z,8.63
2023-04-15T17:36:51.606Z,8.98
2023-04-15T17:39:41.603Z,7.30
2023-04-15T17:42:15.878Z,11.23
2023-04-15T17:44:45.595Z,5.87
2023-04-15T17:47:14.867Z,8.23
2023-04-15T17:49:41.639Z,6.82
2023-04-15T17:55:23.057Z,7.20
2023-04-15T17:57:56.953Z,5.87
2023-04-15T18:00:26.735Z,7.47
2023-04-15T18:02:57.610Z,7.35
2023-04-15T18:05:24.590Z,9.23
2023-04-15T18:07:53.106Z,11.48
2023-04-15T18:10:20.850Z,11.37
2023-04-15T18:12:50.528Z,10.63
2023-04-15T18:15:23.298Z,6.15
2023-04-15T18:17:50.086Z,10.52
2023-04-15T18:20:16.948Z,7.32
2023-04-15T18:22:44.461Z,8.27
2023-04-15T18:25:11.372Z,5.47
2023-04-15T18:27:41.272Z,7.05
2023-04-15T18:30:14.278Z,7.38
2023-04-15T18:32:55.404Z,7.22
2023-04-15T18:35:22.791Z,7.33
2023-04-15T18:37:49.577Z,8.88
2023-04-15T18:40:19.220Z,6.53
2023-04-15T18:46:12.433Z,9.10
2023-04-15T18:48:39.594Z,8.30
2023-04-15T18:51:06.202Z,7.50
2023-04-15T18:53:38.133Z,7.88
2023-04-15T18:56:05.251Z,10.73
2023-04-15T18:59:18.254Z,8.52
2023-04-15T19:01:27.080Z,6.73
2023-04-15T19:04:09.300Z,8.95
2023-04-15T19:06:50.863Z,8.93
2023-04-15T19:09:17.985Z,7.57
2023-04-15T19:11:44.756Z,8.25
2023-04-15T19:14:11.788Z,6.17
2023-04-15T19:16:48.613Z,7.28
2023-04-15T19:19:16.976Z,8.02
2023-04-15T19:21:49.921Z,8.38
2023-04-15T19:24:21.843Z,14.38
2023-04-15T19:27:06.535Z,10.40
2023-04-15T19:30:19.799Z,8.13
2023-04-15T19:33:11.148Z,10.80
2023-04-15T19:36:01.817Z,10.25
2023-04-15T19:39:21.215Z,11.48
2023-04-15T19:42:21.463Z,10.27
2023-04-15T19:45:06.513Z,10.80
2023-04-15T19:47:45.728Z,9.00
2023-04-15T19:50:17.046Z,9.02
2023-04-15T19:52:43.908Z,10.65
2023-04-15T19:55:13.271Z,9.00
2023-04-15T19:57:39.920Z,10.13
2023-04-15T20:00:08.595Z,12.05
2023-04-15T20:02:38.492Z,10.95
2023-04-15T20:05:09.821Z,10.73
2023-04-15T20:07:36.792Z,9.23
2023-04-15T20:10:09.641Z,9.50
2023-04-15T20:12:51.164Z,8.38
2023-04-15T20:15:23.871Z,9.27
2023-04-15T20:17:50.985Z,9.82
2023-04-15T20:20:24.228Z,9.50
2023-04-15T20:22:53.203Z,10.85
2023-04-15T20:25:20.191Z,11.63
2023-04-15T20:27:47.372Z,9.88
2023-04-15T20:30:15.625Z,9.48
2023-04-15T20:32:55.371Z,9.77
2023-04-15T20:35:22.424Z,9.10
2023-04-15T20:37:49.515Z,9.45
2023-04-15T20:40:16.644Z,8.60
2023-04-15T20:42:58.151Z,12.02
2023-04-15T20:45:54.007Z,9.77
2023-04-15T20:48:24.102Z,11.10
2023-04-15T20:50:59.526Z,9.98
2023-04-15T20:53:27.684Z,10.52
2023-04-15T20:55:59.689Z,10.07
2023-04-15T20:58:27.603Z,10.23
2023-04-15T21:00:58.844Z,8.95
2023-04-15T21:06:08.279Z,8.25
2023-04-15T21:08:37.153Z,8.05
2023-04-15T21:11:03.855Z,10.03
2023-04-15T21:13:30.513Z,12.23
2023-04-15T21:18:40.310Z,13.80
2023-04-15T21:21:10.101Z,10.68
2023-04-15T21:23:48.899Z,10.77
2023-04-15T21:26:18.724Z,12.00
2023-04-15T21:28:55.764Z,10.10
2023-04-15T21:31:25.134Z,9.75
2023-04-15T21:34:02.562Z,10.45
2023-04-15T21:36:51.455Z,9.27
2023-04-15T21:39:21.132Z,8.63
2023-04-15T21:41:50.017Z,11.50
2023-04-15T21:44:19.733Z,11.63
2023-04-15T21:47:09.997Z,10.32
2023-04-15T21:49:49.362Z,14.20
2023-04-15T21:52:28.604Z,13.02
2023-04-15T21:54:56.255Z,13.35
2023-04-15T21:57:54.987Z,10.80
2023-04-15T22:00:34.945Z,12.65
2023-04-15T22:04:32.710Z,9.87
2023-04-15T22:07:20.432Z,10.50
2023-04-15T22:10:10.897Z,12.52
2023-04-15T22:12:37.955Z,10.85
2023-04-15T22:15:07.806Z,11.15
2023-04-15T22:17:34.390Z,11.50
2023-04-15T22:20:04.006Z,13.60
2023-04-15T22:22:43.538Z,12.88
2023-04-15T22:25:11.231Z,14.40
2023-04-15T22:27:40.350Z,12.52
2023-04-15T22:30:07.629Z,12.53
2023-04-15T22:32:34.788Z,12.43
2023-04-15T22:35:02.012Z,12.88
2023-04-15T22:37:31.675Z,11.52
2023-04-15T22:39:58.787Z,12.25
2023-04-15T22:42:25.705Z,14.17
2023-04-15T22:44:52.293Z,11.32
2023-04-15T22:47:19.709Z,12.48
2023-04-15T22:49:46.513Z,10.35
2023-04-15T22:52:27.492Z,10.80
2023-04-15T22:55:00.438Z,11.33
2023-04-15T22:57:28.327Z,15.27
2023-04-15T22:59:55.364Z,12.57
2023-04-15T23:02:22.170Z,14.15
2023-04-15T23:04:49.314Z,10.73
2023-04-15T23:07:16.325Z,14.40
2023-04-15T23:09:43.454Z,13.50
2023-04-15T23:12:10.514Z,13.45
2023-04-15T23:14:37.200Z,15.15
2023-04-15T23:17:04.273Z,12.52
2023-04-15T23:19:31.233Z,12.73
2023-04-15T23:21:58.033Z,15.63
2023-04-15T23:24:24.636Z,16.02
2023-04-15T23:26:53.321Z,16.65
2023-04-15T23:29:20.223Z,13.52
2023-04-15T23:31:48.836Z,12.57
2023-04-15T23:34:15.676Z,11.48
2023-04-15T23:36:42.275Z,14.65
2023-04-15T23:39:09.156Z,14.43
2023-04-15T23:41:36.752Z,13.43
2023-04-15T23:44:03.703Z,18.13
2023-04-15T23:46:30.543Z,12.15
2023-04-15T23:48:57.361Z,19.42
2023-04-15T23:51:29.503Z,13.02
2023-04-15T23:53:56.171Z,13.27
2023-04-15T23:56:22.755Z,13.70
2023-04-15T23:58:49.370Z,17.08
